Terminal Aerodrome Forecast
Issued by NWS Spokane, WA

Home | Current Version | Previous Version | Text Only | Print | Product List | Glossary On
Versions: 1 2 3 4 5 6 7 8 9 10 11 12 13 14 15 16 17 18 19 20 21 22 23 24 25 26 27 28 29 30 31 32 33 34 35 36 37
000
FTUS46 KOTX 201739
TAFLWS
TAF
KLWS 201739Z 2018/2118 10005KT P6SM VCSH SCT025 OVC050
      TEMPO 2019/2022 4SM -RA BR OVC025
     FM202200 13008KT 3SM BR VCSH OVC035
     FM210000 20010KT 6SM -RA BR OVC015
     FM211000 23015G25KT 6SM -RA BR OVC015=

USA.gov is the U.S. government's official web portal to all federal, state and local government web resources and services.